Time;durP1;ratioP1;P1;durP2;ratioP2;P2;SDS_P1;SDS_P2;PMS_P1;PMS_P2;Temp;Humidity;BMP_temperature;BMP_pressure;BME280_temperature;BME280_humidity;BME280_pressure;Samples;Min_cycle;Max_cycle;Signal;HPM_P1;HPM_P2
2021/12/24 00:01:51;;;;;;;63.25;50.40;;;16.60;54.00;;;;;;4939095;28;89509;-71
2021/12/24 00:04:18;;;;;;;63.40;51.13;;;16.50;53.90;;;;;;4945700;28;89485;-71
2021/12/24 00:06:44;;;;;;;62.38;50.85;;;16.50;54.10;;;;;;4939980;28;92906;-71
2021/12/24 00:09:10;;;;;;;63.05;50.55;;;16.40;54.30;;;;;;4938459;28;91370;-71
2021/12/24 00:11:36;;;;;;;63.13;50.83;;;16.40;54.30;;;;;;4943876;28;89574;-71
2021/12/24 00:14:05;;;;;;;62.97;50.30;;;16.40;54.30;;;;;;4937447;28;89148;-71
2021/12/24 00:16:39;;;;;;;63.35;50.50;;;16.30;54.40;;;;;;4937158;28;90779;-71
2021/12/24 00:19:20;;;;;;;63.25;50.35;;;16.30;54.50;;;;;;4942911;28;90093;-71
2021/12/24 00:35:33;;;;;;;63.88;50.55;;;16.70;53.70;;;;;;4943132;28;90823;-71
2021/12/24 00:38:03;;;;;;;64.00;50.83;;;16.90;53.40;;;;;;4939052;28;90724;-70
2021/12/24 00:40:57;;;;;;;62.42;50.45;;;16.90;53.40;;;;;;4943304;28;94389;-71
2021/12/24 00:43:24;;;;;;;63.58;50.47;;;17.00;53.40;;;;;;4943185;28;89725;-71
2021/12/24 00:45:49;;;;;;;62.42;50.42;;;17.10;53.20;;;;;;4944996;28;89607;-71
2021/12/24 00:48:17;;;;;;;62.40;50.17;;;17.10;52.90;;;;;;4965328;28;93759;-71
2021/12/24 00:56:15;;;;;;;61.55;49.97;;;17.30;52.50;;;;;;4967214;28;89614;-71
2021/12/24 00:58:42;;;;;;;61.95;50.13;;;17.30;52.80;;;;;;4950400;28;90374;-71
2021/12/24 01:01:09;;;;;;;63.65;50.78;;;17.30;52.60;;;;;;4939673;28;90970;-71
2021/12/24 01:03:35;;;;;;;63.67;50.15;;;17.30;52.80;;;;;;4952556;28;89977;-71
2021/12/24 01:06:02;;;;;;;63.45;50.20;;;17.30;52.60;;;;;;4956548;28;89508;-71
2021/12/24 01:08:28;;;;;;;63.35;50.10;;;17.40;52.60;;;;;;4954943;28;90094;-71
2021/12/24 01:11:00;;;;;;;62.65;50.70;;;17.30;52.50;;;;;;4951465;28;89953;-71
2021/12/24 01:13:27;;;;;;;62.08;50.05;;;17.40;52.40;;;;;;4946321;28;91988;-71
2021/12/24 01:23:51;;;;;;;62.75;49.78;;;17.40;52.30;;;;;;4953394;28;95528;-71
2021/12/24 01:26:37;;;;;;;62.50;50.50;;;17.40;52.40;;;;;;4960718;28;89930;-71
2021/12/24 01:45:25;;;;;;;64.35;49.85;;;17.20;52.50;;;;;;4898981;28;95742;-71
2021/12/24 01:47:55;;;;;;;61.83;49.97;;;17.20;53.00;;;;;;297768;28;10111050;-71
2021/12/24 01:50:22;;;;;;;62.63;49.85;;;17.20;52.60;;;;;;4957578;28;89907;-71
2021/12/24 01:52:50;;;;;;;62.17;50.00;;;17.10;52.70;;;;;;4953912;28;90437;-71
2021/12/24 01:55:17;;;;;;;61.88;49.60;;;17.10;52.70;;;;;;4950461;28;90575;-71
2021/12/24 01:57:43;;;;;;;62.10;49.70;;;17.10;52.60;;;;;;4957192;28;89306;-71
2021/12/24 02:00:12;;;;;;;62.42;50.13;;;17.10;52.70;;;;;;4964022;28;90010;-71
2021/12/24 02:02:38;;;;;;;63.13;49.72;;;17.10;52.90;;;;;;4946024;28;94648;-71
2021/12/24 02:05:04;;;;;;;61.90;49.42;;;17.00;52.80;;;;;;4957969;28;91001;-71
2021/12/24 02:07:30;;;;;;;60.60;49.15;;;17.10;52.90;;;;;;4953553;28;89752;-71
2021/12/24 02:09:55;;;;;;;61.83;49.65;;;17.00;52.90;;;;;;4954933;28;90233;-71
2021/12/24 02:12:24;;;;;;;62.00;49.85;;;17.00;52.90;;;;;;4953495;28;90054;-71
2021/12/24 02:14:53;;;;;;;62.00;49.65;;;17.00;53.00;;;;;;4943655;28;91784;-71
2021/12/24 02:17:56;;;;;;;60.80;49.33;;;16.90;53.00;;;;;;4956953;28;89827;-71
2021/12/24 02:28:46;;;;;;;62.75;50.08;;;16.90;53.10;;;;;;4950538;28;89821;-71
2021/12/24 02:31:22;;;;;;;61.30;49.55;;;16.90;53.80;;;;;;4949548;28;90815;-71
2021/12/24 02:33:48;;;;;;;61.83;49.83;;;16.80;53.10;;;;;;4965507;28;92949;-71
2021/12/24 02:36:14;;;;;;;62.53;49.53;;;16.80;53.20;;;;;;4953461;28;92384;-71
2021/12/24 02:38:41;;;;;;;61.05;49.53;;;16.80;53.10;;;;;;4952192;28;91345;-71
2021/12/24 02:41:08;;;;;;;61.88;49.58;;;16.80;53.30;;;;;;4951270;28;89968;-71
2021/12/24 02:43:35;;;;;;;61.38;49.60;;;16.80;53.40;;;;;;4965237;28;90637;-71
2021/12/24 02:46:09;;;;;;;62.20;49.67;;;16.80;54.00;;;;;;4953386;28;89737;-71
2021/12/24 02:53:59;;;;;;;61.80;49.45;;;16.80;53.40;;;;;;4956881;28;89509;-71
2021/12/24 02:56:34;;;;;;;61.72;49.72;;;16.70;53.50;;;;;;4949528;28;90749;-71
2021/12/24 02:59:06;;;;;;;62.72;49.70;;;16.70;53.50;;;;;;4949827;28;89683;-71
2021/12/24 03:01:39;;;;;;;62.95;49.60;;;16.70;53.50;;;;;;4949449;28;89790;-70
2021/12/24 03:04:06;;;;;;;62.65;49.78;;;16.70;53.50;;;;;;4947636;28;90334;-71
2021/12/24 03:06:40;;;;;;;62.83;49.70;;;16.70;53.50;;;;;;4951462;28;90712;-71
2021/12/24 03:09:09;;;;;;;61.33;49.63;;;16.70;53.50;;;;;;4953945;28;95490;-71
2021/12/24 03:11:36;;;;;;;62.70;49.88;;;16.70;53.50;;;;;;4951642;28;90160;-71
2021/12/24 03:14:04;;;;;;;62.67;49.92;;;16.70;53.60;;;;;;4946037;28;91255;-71
2021/12/24 03:16:29;;;;;;;62.95;49.58;;;16.70;53.60;;;;;;4953771;28;92043;-69
2021/12/24 03:18:55;;;;;;;61.83;49.80;;;16.70;53.60;;;;;;4950692;28;91954;-69
2021/12/24 03:21:30;;;;;;;62.42;49.60;;;16.70;53.60;;;;;;4950814;28;92308;-71
2021/12/24 03:26:30;;;;;;;62.53;49.63;;;16.60;53.70;;;;;;4953448;28;89887;-71
2021/12/24 03:28:56;;;;;;;62.58;50.05;;;16.60;53.70;;;;;;4948677;28;90552;-71
2021/12/24 03:31:21;;;;;;;62.90;49.80;;;16.60;53.70;;;;;;4953764;28;90896;-71
2021/12/24 03:33:48;;;;;;;61.58;49.60;;;16.70;53.70;;;;;;4948005;28;90667;-71
2021/12/24 03:36:15;;;;;;;61.78;49.53;;;16.70;53.60;;;;;;4951071;28;90117;-71
2021/12/24 03:38:41;;;;;;;62.78;49.88;;;16.80;53.70;;;;;;4948920;28;91154;-71
2021/12/24 03:41:06;;;;;;;62.13;49.58;;;16.90;53.50;;;;;;4951036;28;92160;-71
2021/12/24 03:43:33;;;;;;;62.47;50.42;;;16.90;53.40;;;;;;4918228;28;91034;-71
2021/12/24 03:46:03;;;;;;;61.55;49.45;;;16.90;53.20;;;;;;4926755;28;91277;-71
2021/12/24 03:48:45;;;;;;;62.05;49.72;;;17.00;53.20;;;;;;4952313;28;89979;-71
2021/12/24 03:56:24;;;;;;;61.03;49.53;;;17.20;52.90;;;;;;4956389;28;89922;-71
2021/12/24 03:58:49;;;;;;;61.05;49.70;;;17.20;52.80;;;;;;4946411;28;90515;-71
2021/12/24 04:01:15;;;;;;;61.53;49.45;;;17.20;52.80;;;;;;4958583;28;89570;-71
2021/12/24 04:03:41;;;;;;;62.22;49.13;;;17.20;52.70;;;;;;4951033;28;89003;-71
2021/12/24 04:06:06;;;;;;;62.28;49.75;;;17.20;52.60;;;;;;4954059;28;91268;-71
2021/12/24 04:08:33;;;;;;;61.85;49.92;;;17.30;52.60;;;;;;4942340;28;90277;-71
2021/12/24 04:10:58;;;;;;;62.15;49.13;;;17.30;52.70;;;;;;4964747;28;90914;-71
2021/12/24 04:13:24;;;;;;;61.42;49.50;;;17.20;52.60;;;;;;4946861;28;90015;-71
2021/12/24 04:15:50;;;;;;;61.08;49.47;;;17.20;52.70;;;;;;4947625;28;90839;-71
2021/12/24 04:18:22;;;;;;;63.70;49.95;;;17.20;52.70;;;;;;4950065;28;89871;-71
2021/12/24 04:26:16;;;;;;;61.10;49.58;;;17.20;52.70;;;;;;4953534;28;89511;-71
2021/12/24 04:28:42;;;;;;;61.78;49.42;;;17.20;52.70;;;;;;4946360;28;89713;-71
2021/12/24 04:31:08;;;;;;;62.42;49.85;;;17.20;52.70;;;;;;4962089;28;90557;-71
2021/12/24 04:33:37;;;;;;;62.30;49.95;;;17.10;52.80;;;;;;4948077;28;91598;-71
2021/12/24 04:36:42;;;;;;;61.55;49.35;;;17.20;53.40;;;;;;4933193;28;91077;-71
2021/12/24 04:52:53;;;;;;;62.05;49.95;;;17.00;53.20;;;;;;4949099;28;89741;-71
2021/12/24 05:04:03;;;;;;;61.10;48.95;;;16.80;53.50;;;;;;4930804;28;91272;-71
2021/12/24 05:06:47;;;;;;;62.60;49.70;;;16.80;53.50;;;;;;4956268;28;95997;-71
2021/12/24 05:09:15;;;;;;;60.50;49.25;;;16.80;53.70;;;;;;4953857;28;90053;-71
2021/12/24 05:11:41;;;;;;;61.33;49.35;;;16.70;53.80;;;;;;4955208;28;89978;-70
2021/12/24 05:14:06;;;;;;;63.30;49.95;;;16.70;53.90;;;;;;4951293;28;89995;-71
2021/12/24 05:16:48;;;;;;;60.88;49.50;;;16.60;54.10;;;;;;4954774;28;90110;-71
2021/12/24 05:22:00;;;;;;;62.72;49.53;;;16.90;53.90;;;;;;4951427;28;89973;-71
2021/12/24 05:24:27;;;;;;;60.72;49.15;;;17.10;53.40;;;;;;4950779;28;89494;-71
2021/12/24 05:26:56;;;;;;;61.00;49.40;;;17.30;53.10;;;;;;4953251;28;91089;-71
2021/12/24 05:29:22;;;;;;;61.58;49.33;;;17.50;52.90;;;;;;4952306;28;91355;-71
2021/12/24 05:31:49;;;;;;;62.10;49.70;;;17.70;52.50;;;;;;4955700;28;90457;-71
2021/12/24 05:34:17;;;;;;;62.97;49.00;;;17.80;52.40;;;;;;4956345;28;89759;-71
2021/12/24 05:36:48;;;;;;;62.17;49.65;;;17.90;52.20;;;;;;4950014;28;96435;-71
2021/12/24 05:39:17;;;;;;;62.78;49.85;;;18.00;51.90;;;;;;4948653;28;89802;-71
2021/12/24 05:41:44;;;;;;;62.50;49.95;;;18.10;51.80;;;;;;4954598;28;89965;-71
2021/12/24 05:44:15;;;;;;;61.65;49.17;;;18.20;51.70;;;;;;4944841;28;90007;-71
2021/12/24 05:46:40;;;;;;;61.90;49.53;;;18.30;51.40;;;;;;4957170;28;89191;-70
2021/12/24 05:49:06;;;;;;;62.55;50.15;;;18.30;51.40;;;;;;4952984;28;89985;-71
2021/12/24 05:51:33;;;;;;;62.83;50.00;;;18.30;51.30;;;;;;4953260;28;90158;-71
2021/12/24 05:53:59;;;;;;;62.85;49.72;;;18.30;51.40;;;;;;4952852;28;94143;-71
2021/12/24 05:56:25;;;;;;;64.30;49.83;;;18.50;51.40;;;;;;4956579;28;90411;-71
2021/12/24 05:58:50;;;;;;;62.63;49.40;;;18.50;51.20;;;;;;4952441;28;90125;-71
2021/12/24 06:01:16;;;;;;;62.53;49.63;;;18.60;51.00;;;;;;4953385;28;89962;-71
2021/12/24 06:03:42;;;;;;;63.38;49.72;;;18.50;51.30;;;;;;4948897;28;90492;-71
2021/12/24 06:06:07;;;;;;;62.33;49.35;;;18.50;51.10;;;;;;4949116;28;90519;-71
2021/12/24 06:08:33;;;;;;;62.58;49.53;;;18.60;51.30;;;;;;4944061;28;94088;-71
2021/12/24 06:10:59;;;;;;;63.92;49.47;;;18.50;51.30;;;;;;4948542;28;90118;-70
2021/12/24 06:13:25;;;;;;;62.30;49.80;;;18.50;51.30;;;;;;4928443;28;91938;-71
2021/12/24 06:15:52;;;;;;;61.83;49.65;;;18.50;51.40;;;;;;4944882;28;92405;-71
2021/12/24 06:18:26;;;;;;;62.45;49.63;;;18.50;51.40;;;;;;4951075;28;91235;-71
2021/12/24 06:20:53;;;;;;;62.97;49.60;;;18.50;51.30;;;;;;4955902;28;90571;-72
2021/12/24 06:23:22;;;;;;;61.60;49.25;;;18.50;51.30;;;;;;4954988;28;89876;-71
2021/12/24 06:25:49;;;;;;;62.40;49.38;;;18.50;51.30;;;;;;4969197;28;91299;-71
2021/12/24 06:28:15;;;;;;;62.13;49.85;;;18.50;51.20;;;;;;4950557;28;90208;-71
2021/12/24 06:30:41;;;;;;;62.78;50.00;;;18.50;51.30;;;;;;4947936;28;90553;-71
2021/12/24 06:33:08;;;;;;;61.60;49.47;;;18.40;51.40;;;;;;4944370;28;90873;-70
2021/12/24 06:35:33;;;;;;;62.00;49.35;;;18.40;51.40;;;;;;4943454;28;89582;-70
2021/12/24 06:38:01;;;;;;;61.88;49.47;;;18.40;51.40;;;;;;4929607;28;93762;-73
2021/12/24 06:40:27;;;;;;;61.65;49.13;;;18.40;51.40;;;;;;4948010;28;90193;-70
2021/12/24 06:42:53;;;;;;;62.85;49.83;;;18.40;51.50;;;;;;4946489;28;92364;-70
2021/12/24 06:45:22;;;;;;;63.10;49.53;;;18.30;51.50;;;;;;4946003;28;90527;-70
2021/12/24 06:47:50;;;;;;;62.20;49.25;;;18.30;51.60;;;;;;4940749;28;91009;-71
2021/12/24 06:50:16;;;;;;;62.42;49.97;;;18.20;51.80;;;;;;4944730;28;90102;-70
2021/12/24 06:52:41;;;;;;;62.63;49.35;;;18.20;51.80;;;;;;4945350;28;98226;-70
2021/12/24 06:55:08;;;;;;;64.15;49.70;;;18.10;52.00;;;;;;4945927;28;92944;-70
2021/12/24 06:57:34;;;;;;;61.75;49.67;;;18.10;52.00;;;;;;4943248;28;90870;-70
2021/12/24 06:59:59;;;;;;;61.85;49.70;;;18.10;52.10;;;;;;4944403;28;89475;-71
2021/12/24 07:02:25;;;;;;;61.55;49.65;;;18.00;52.10;;;;;;4941243;28;90827;-71
2021/12/24 07:04:50;;;;;;;62.35;49.75;;;18.00;52.40;;;;;;4948175;28;91940;-71
2021/12/24 07:07:16;;;;;;;62.65;49.42;;;18.00;52.30;;;;;;4944891;28;91573;-70
2021/12/24 07:09:42;;;;;;;63.45;49.78;;;18.00;52.40;;;;;;4939362;28;90581;-70
2021/12/24 07:12:13;;;;;;;62.28;49.50;;;17.90;52.50;;;;;;4946844;28;90589;-70
2021/12/24 07:14:42;;;;;;;64.63;49.28;;;17.90;52.50;;;;;;4947214;28;89807;-70
2021/12/24 07:17:10;;;;;;;63.92;49.60;;;17.80;52.60;;;;;;4952481;28;89658;-70
2021/12/24 07:19:36;;;;;;;62.10;49.28;;;17.90;52.50;;;;;;4951360;28;90692;-70
2021/12/24 07:22:02;;;;;;;61.88;49.35;;;17.80;52.60;;;;;;4956948;28;89562;-70
2021/12/24 07:24:28;;;;;;;61.90;49.45;;;17.70;52.70;;;;;;4952926;28;90989;-70
2021/12/24 07:26:54;;;;;;;63.33;49.63;;;17.70;52.70;;;;;;4955424;28;91115;-70
2021/12/24 07:29:19;;;;;;;63.65;50.42;;;17.70;52.80;;;;;;4947160;28;90074;-71
2021/12/24 07:31:45;;;;;;;63.90;50.17;;;17.70;52.80;;;;;;4951620;28;90847;-70
2021/12/24 07:34:10;;;;;;;64.07;49.90;;;17.70;52.80;;;;;;4949252;28;90052;-70
2021/12/24 07:36:36;;;;;;;63.10;50.03;;;17.60;52.90;;;;;;4943475;28;90279;-70
2021/12/24 07:39:03;;;;;;;63.75;50.05;;;17.60;53.20;;;;;;4941112;28;89987;-70
2021/12/24 07:41:28;;;;;;;63.08;50.25;;;17.60;53.00;;;;;;4947955;28;91720;-69
2021/12/24 07:43:55;;;;;;;63.05;49.70;;;17.50;53.40;;;;;;4940046;28;90307;-69
2021/12/24 07:46:23;;;;;;;62.60;49.92;;;17.50;53.70;;;;;;4952012;28;90708;-69
2021/12/24 07:48:49;;;;;;;63.97;49.70;;;17.70;53.50;;;;;;4952645;28;89585;-70
2021/12/24 07:54:03;;;;;;;65.72;50.30;;;18.00;52.50;;;;;;4955540;28;90352;-70
2021/12/24 07:56:29;;;;;;;63.38;50.17;;;18.20;52.30;;;;;;4952156;28;90829;-70
2021/12/24 07:58:55;;;;;;;64.03;49.72;;;18.20;52.10;;;;;;4941445;28;90058;-70
2021/12/24 08:01:25;;;;;;;63.90;50.05;;;18.30;52.20;;;;;;4943737;28;90068;-70
2021/12/24 08:03:55;;;;;;;67.65;49.88;;;18.40;51.80;;;;;;4941703;28;89682;-69
2021/12/24 08:06:24;;;;;;;64.32;50.03;;;18.30;52.00;;;;;;4952567;28;91100;-69
2021/12/24 08:08:49;;;;;;;65.20;50.83;;;18.20;52.90;;;;;;4948126;28;89412;-69
2021/12/24 08:11:15;;;;;;;66.63;50.40;;;18.40;52.20;;;;;;4938770;28;91637;-70
2021/12/24 08:13:42;;;;;;;62.85;50.03;;;18.30;52.40;;;;;;4944251;28;90121;-70
2021/12/24 08:16:08;;;;;;;62.17;49.90;;;18.30;52.20;;;;;;4948231;28;91029;-70
2021/12/24 08:18:34;;;;;;;63.67;49.90;;;18.40;52.00;;;;;;4944529;28;89926;-69
2021/12/24 08:20:59;;;;;;;64.88;50.17;;;18.50;52.00;;;;;;4949024;28;90866;-69
2021/12/24 08:23:25;;;;;;;65.90;50.47;;;18.60;51.70;;;;;;4951893;28;90798;-70
2021/12/24 08:25:58;;;;;;;67.15;50.58;;;18.50;51.90;;;;;;4951330;28;92897;-69
2021/12/24 08:28:24;;;;;;;63.90;50.08;;;18.60;51.90;;;;;;4941883;28;90653;-69
2021/12/24 08:30:50;;;;;;;65.05;50.53;;;18.70;51.90;;;;;;4945851;28;91166;-70
2021/12/24 08:33:16;;;;;;;63.97;50.10;;;18.70;51.80;;;;;;4952807;28;91589;-70
2021/12/24 08:35:41;;;;;;;64.93;50.58;;;18.70;51.60;;;;;;4945329;28;90679;-70
2021/12/24 08:38:07;;;;;;;67.22;50.55;;;18.70;52.00;;;;;;4940893;28;91301;-70
2021/12/24 08:40:33;;;;;;;65.10;50.53;;;18.70;52.00;;;;;;4939453;28;90011;-69
2021/12/24 08:43:00;;;;;;;65.95;50.75;;;18.70;52.00;;;;;;4937474;28;90429;-70
2021/12/24 08:45:25;;;;;;;67.20;51.00;;;18.60;52.10;;;;;;4937362;28;91527;-70
2021/12/24 08:47:51;;;;;;;68.30;50.85;;;18.60;52.10;;;;;;4940631;28;90216;-70
2021/12/24 08:50:17;;;;;;;66.20;50.65;;;18.60;52.40;;;;;;4936340;28;90879;-70
2021/12/24 08:52:45;;;;;;;66.72;50.67;;;18.60;52.40;;;;;;4943811;28;90684;-70
2021/12/24 08:55:12;;;;;;;73.03;51.72;;;18.60;52.50;;;;;;4946056;28;90581;-70
2021/12/24 08:57:39;;;;;;;69.38;51.35;;;18.50;52.60;;;;;;4945336;28;90008;-70
2021/12/24 09:00:09;;;;;;;64.88;50.85;;;18.40;52.80;;;;;;4943387;28;90807;-70
2021/12/24 09:02:35;;;;;;;68.05;51.30;;;18.30;53.00;;;;;;4942474;28;90382;-70
2021/12/24 09:05:01;;;;;;;67.15;51.35;;;18.30;53.30;;;;;;4946984;28;90436;-70
2021/12/24 09:07:27;;;;;;;65.78;51.03;;;18.30;53.20;;;;;;4946414;28;89698;-70
2021/12/24 09:09:52;;;;;;;67.68;50.78;;;18.30;53.30;;;;;;4948455;28;91227;-70
2021/12/24 09:12:18;;;;;;;67.30;52.13;;;18.40;53.10;;;;;;4947682;28;90975;-70
2021/12/24 09:14:44;;;;;;;70.60;51.83;;;18.40;53.00;;;;;;4943791;28;90601;-70
2021/12/24 09:17:10;;;;;;;70.80;51.65;;;18.30;52.70;;;;;;4945011;28;90930;-71
2021/12/24 09:19:37;;;;;;;67.90;50.92;;;18.30;53.20;;;;;;4945576;28;90576;-70
2021/12/24 09:22:04;;;;;;;69.03;51.80;;;18.30;53.20;;;;;;4951209;28;89897;-71
2021/12/24 09:24:31;;;;;;;67.95;51.38;;;18.20;53.20;;;;;;4950293;28;91050;-70
2021/12/24 09:26:57;;;;;;;67.40;51.90;;;18.20;53.40;;;;;;4950579;28;89441;-70
2021/12/24 09:29:24;;;;;;;69.70;51.13;;;18.20;53.30;;;;;;4942223;28;90327;-70
2021/12/24 09:31:50;;;;;;;66.82;51.53;;;18.20;53.30;;;;;;4935588;28;91935;-71
2021/12/24 09:34:16;;;;;;;67.38;51.63;;;18.20;53.40;;;;;;4926496;28;91930;-70
2021/12/24 09:36:41;;;;;;;68.55;51.97;;;18.20;53.50;;;;;;4932624;28;90761;-70
2021/12/24 09:39:09;;;;;;;66.53;51.05;;;18.20;53.50;;;;;;4939641;28;89578;-71
2021/12/24 09:41:35;;;;;;;65.47;51.42;;;18.20;53.50;;;;;;4954571;28;90043;-70
2021/12/24 09:44:02;;;;;;;67.20;51.65;;;18.20;53.50;;;;;;4953641;28;89699;-71
2021/12/24 09:46:30;;;;;;;68.55;51.28;;;18.20;53.50;;;;;;4948720;28;90115;-70
2021/12/24 09:48:57;;;;;;;69.50;51.78;;;18.20;53.40;;;;;;4952347;28;89841;-70
2021/12/24 09:51:26;;;;;;;65.53;50.92;;;18.20;53.50;;;;;;4954161;28;89567;-70
2021/12/24 09:53:52;;;;;;;68.10;51.85;;;18.10;53.60;;;;;;4968830;28;91177;-70
2021/12/24 09:56:20;;;;;;;68.55;51.72;;;18.20;53.60;;;;;;4953558;28;90225;-70
2021/12/24 09:58:45;;;;;;;65.57;50.88;;;18.10;53.60;;;;;;4953291;28;90500;-70
2021/12/24 10:01:34;;;;;;;66.72;51.60;;;18.00;53.70;;;;;;4944011;28;91109;-70
2021/12/24 10:04:09;;;;;;;66.40;51.25;;;18.00;53.80;;;;;;4948595;28;94345;-70
2021/12/24 10:06:36;;;;;;;66.72;50.92;;;18.00;53.80;;;;;;4954184;28;89481;-70
2021/12/24 10:09:12;;;;;;;67.05;51.28;;;18.00;53.90;;;;;;4953817;28;89768;-70
2021/12/24 10:11:47;;;;;;;68.30;51.22;;;18.00;53.80;;;;;;4967695;28;91271;-70
2021/12/24 10:14:14;;;;;;;66.78;51.40;;;18.00;53.80;;;;;;4950117;28;90462;-71
2021/12/24 10:16:44;;;;;;;64.30;50.80;;;17.90;54.00;;;;;;4955418;28;89349;-71
2021/12/24 10:19:11;;;;;;;66.68;51.17;;;17.90;54.10;;;;;;4954098;28;89902;-71
2021/12/24 10:21:37;;;;;;;66.75;50.95;;;17.90;53.70;;;;;;4955054;28;91145;-70
2021/12/24 10:24:26;;;;;;;66.97;51.97;;;17.80;54.00;;;;;;4953120;28;91594;-70
2021/12/24 10:26:55;;;;;;;65.45;50.83;;;17.70;54.30;;;;;;4951772;28;90075;-70
2021/12/24 10:29:29;;;;;;;70.82;51.50;;;17.70;54.50;;;;;;4953695;28;90704;-70
2021/12/24 10:31:58;;;;;;;66.93;51.33;;;17.70;54.60;;;;;;4958137;28;89461;-70
2021/12/24 10:34:33;;;;;;;66.35;51.67;;;17.70;54.60;;;;;;4949790;28;90474;-70
2021/12/24 10:37:07;;;;;;;67.93;51.42;;;17.70;54.40;;;;;;4957108;28;90268;-70
2021/12/24 10:39:39;;;;;;;66.57;51.58;;;17.70;54.50;;;;;;4951735;28;89705;-70
2021/12/24 10:42:15;;;;;;;66.57;51.42;;;17.70;54.60;;;;;;4947393;28;88852;-70
2021/12/24 10:44:42;;;;;;;66.72;51.35;;;17.60;54.50;;;;;;4949562;28;91342;-70
2021/12/24 10:47:13;;;;;;;67.30;51.15;;;17.60;54.70;;;;;;4950328;28;89698;-70
2021/12/24 10:54:57;;;;;;;65.07;50.78;;;17.60;55.00;;;;;;4951879;28;90670;-70
2021/12/24 10:57:38;;;;;;;66.78;51.78;;;17.50;55.00;;;;;;4948913;28;90623;-70
2021/12/24 11:00:24;;;;;;;66.20;51.08;;;17.50;54.90;;;;;;4941617;28;90233;-71
2021/12/24 11:02:53;;;;;;;66.43;50.97;;;17.50;54.90;;;;;;4947525;28;90985;-70
2021/12/24 11:05:25;;;;;;;66.22;51.47;;;17.50;55.00;;;;;;4943876;28;92285;-70
2021/12/24 11:07:51;;;;;;;64.85;51.05;;;17.50;55.00;;;;;;4948895;28;91568;-70
2021/12/24 11:10:25;;;;;;;66.07;51.70;;;17.50;55.00;;;;;;4951702;28;90515;-70
2021/12/24 11:13:09;;;;;;;65.38;51.08;;;17.50;55.00;;;;;;4947560;28;89751;-71
2021/12/24 11:15:41;;;;;;;67.10;51.72;;;17.60;55.00;;;;;;4947076;28;91547;-70
2021/12/24 11:18:14;;;;;;;65.00;51.22;;;17.50;55.10;;;;;;4951850;28;89471;-68
2021/12/24 11:20:40;;;;;;;66.20;51.45;;;17.50;55.00;;;;;;4957538;28;90794;-68
2021/12/24 11:23:14;;;;;;;67.15;51.08;;;17.50;55.10;;;;;;4953829;28;90564;-68
2021/12/24 11:25:45;;;;;;;67.35;51.97;;;17.40;55.10;;;;;;4952945;28;94478;-69
2021/12/24 11:28:13;;;;;;;65.70;51.50;;;17.40;55.20;;;;;;4956248;28;90200;-68
2021/12/24 11:30:42;;;;;;;66.32;51.33;;;17.50;55.30;;;;;;4952598;28;90165;-68
2021/12/24 11:33:12;;;;;;;66.10;51.88;;;17.40;55.30;;;;;;4953566;28;89526;-68
2021/12/24 11:35:38;;;;;;;64.90;51.38;;;17.40;55.30;;;;;;4956331;28;89922;-67
2021/12/24 11:38:04;;;;;;;66.90;51.20;;;17.40;55.30;;;;;;4952764;28;89839;-68
2021/12/24 11:40:30;;;;;;;66.07;51.25;;;17.40;55.30;;;;;;4951876;28;91127;-68
2021/12/24 11:43:03;;;;;;;65.82;51.70;;;17.50;55.30;;;;;;4952909;28;91499;-68
2021/12/24 11:45:31;;;;;;;66.93;51.22;;;17.40;55.30;;;;;;4951750;28;91069;-70
2021/12/24 11:47:57;;;;;;;64.60;51.08;;;17.40;55.40;;;;;;4948829;28;91033;-70
2021/12/24 11:50:24;;;;;;;65.72;51.33;;;17.40;55.40;;;;;;4950654;28;90094;-70
2021/12/24 11:52:53;;;;;;;64.97;51.47;;;17.40;55.30;;;;;;4952607;28;90215;-70
2021/12/24 11:55:20;;;;;;;65.18;51.22;;;17.40;55.30;;;;;;4953320;28;91909;-70
2021/12/24 11:58:07;;;;;;;64.85;51.25;;;17.40;55.30;;;;;;4953780;28;89489;-70
2021/12/24 12:00:40;;;;;;;65.18;51.50;;;17.40;55.30;;;;;;4949796;28;89357;-70
2021/12/24 12:03:10;;;;;;;65.20;51.65;;;17.40;55.30;;;;;;4947435;28;95783;-71
2021/12/24 12:05:38;;;;;;;66.88;52.13;;;17.40;55.20;;;;;;4950838;28;91475;-70
2021/12/24 12:08:23;;;;;;;65.22;51.22;;;17.40;55.20;;;;;;4952359;28;90780;-70
2021/12/24 12:11:14;;;;;;;65.40;51.33;;;17.40;55.20;;;;;;4955377;28;90079;-70
2021/12/24 12:14:04;;;;;;;65.65;51.65;;;17.40;55.30;;;;;;4945192;28;90628;-71
2021/12/24 12:16:39;;;;;;;65.10;51.75;;;17.40;55.30;;;;;;4954622;28;91189;-70
2021/12/24 12:19:22;;;;;;;64.75;50.83;;;17.40;55.20;;;;;;4948758;28;94117;-71
2021/12/24 12:22:12;;;;;;;64.95;51.45;;;17.40;55.20;;;;;;4953201;28;91147;-70
2021/12/24 12:24:58;;;;;;;63.63;50.90;;;17.50;55.10;;;;;;4954923;28;90465;-70
2021/12/24 12:27:54;;;;;;;64.93;51.55;;;17.50;55.10;;;;;;4948457;28;89777;-71
2021/12/24 12:30:25;;;;;;;66.75;51.67;;;17.50;55.10;;;;;;4952409;28;90052;-70
2021/12/24 12:33:13;;;;;;;65.70;51.10;;;17.50;55.10;;;;;;4950087;28;91214;-70
2021/12/24 12:35:56;;;;;;;63.85;51.00;;;17.50;55.20;;;;;;4965846;28;93537;-70
2021/12/24 12:38:33;;;;;;;65.55;51.22;;;17.50;55.20;;;;;;4951846;28;91443;-70
2021/12/24 12:41:18;;;;;;;65.57;51.30;;;17.50;55.30;;;;;;4953509;28;89633;-70
2021/12/24 12:43:43;;;;;;;65.00;51.03;;;17.40;55.20;;;;;;4950566;28;90664;-70
2021/12/24 12:46:30;;;;;;;63.92;50.97;;;17.40;55.30;;;;;;4953820;28;89852;-70
2021/12/24 12:48:57;;;;;;;66.78;51.72;;;17.40;55.40;;;;;;4952144;28;91537;-70
2021/12/24 12:51:46;;;;;;;65.13;51.08;;;17.40;55.40;;;;;;4955896;28;88670;-71
2021/12/24 12:54:32;;;;;;;64.55;50.78;;;17.30;55.50;;;;;;4953077;28;89547;-70
2021/12/24 12:57:13;;;;;;;64.82;51.25;;;17.30;55.70;;;;;;4954346;28;90408;-70
2021/12/24 12:59:58;;;;;;;64.35;50.80;;;17.30;55.60;;;;;;4949683;28;90630;-70
2021/12/24 13:03:01;;;;;;;64.47;51.25;;;17.30;55.60;;;;;;4941608;28;89534;-70
2021/12/24 13:05:30;;;;;;;64.57;50.92;;;17.30;55.70;;;;;;4952288;28;90007;-70
2021/12/24 13:08:00;;;;;;;63.92;50.22;;;17.30;55.70;;;;;;4950190;28;90653;-71
2021/12/24 13:10:28;;;;;;;64.22;51.03;;;17.30;55.60;;;;;;4951244;28;93245;-70
2021/12/24 13:13:01;;;;;;;64.75;51.38;;;17.30;55.60;;;;;;4952392;28;89842;-70
2021/12/24 13:15:27;;;;;;;65.88;51.95;;;17.30;55.70;;;;;;4946898;28;95760;-70
2021/12/24 13:17:52;;;;;;;63.83;50.83;;;17.30;55.70;;;;;;4955151;28;89968;-70
2021/12/24 13:20:21;;;;;;;64.85;51.78;;;17.40;55.70;;;;;;4949731;28;90461;-70
2021/12/24 13:22:46;;;;;;;65.25;51.88;;;17.30;55.60;;;;;;4950216;28;90669;-70
2021/12/24 13:25:15;;;;;;;66.20;51.17;;;17.40;55.60;;;;;;4942387;28;90950;-71
2021/12/24 13:27:51;;;;;;;65.28;51.58;;;17.40;55.60;;;;;;4948478;28;90131;-71
2021/12/24 13:30:24;;;;;;;64.47;51.08;;;17.40;55.60;;;;;;4950448;28;91902;-70
2021/12/24 13:32:51;;;;;;;65.30;51.28;;;17.40;55.60;;;;;;4952323;28;90300;-71
2021/12/24 13:35:22;;;;;;;64.45;50.83;;;17.40;55.60;;;;;;4953772;28;90205;-71
2021/12/24 13:37:49;;;;;;;65.60;51.83;;;17.40;55.60;;;;;;4948411;28;90032;-71
2021/12/24 13:40:17;;;;;;;65.53;51.75;;;17.30;55.70;;;;;;4955687;28;89227;-71
2021/12/24 13:42:46;;;;;;;64.82;51.15;;;17.30;55.70;;;;;;4956156;28;90398;-71
2021/12/24 13:45:11;;;;;;;64.03;51.13;;;17.30;55.70;;;;;;4941980;28;90622;-70
2021/12/24 13:47:53;;;;;;;66.00;51.78;;;17.40;55.80;;;;;;4953076;28;91868;-70
2021/12/24 13:55:42;;;;;;;65.25;51.80;;;17.40;56.00;;;;;;4953656;28;90203;-70
2021/12/24 13:58:14;;;;;;;63.95;50.80;;;17.40;56.00;;;;;;4953951;28;92960;-70
2021/12/24 14:00:46;;;;;;;67.90;51.00;;;17.30;55.90;;;;;;4973304;28;93241;-69
2021/12/24 14:03:12;;;;;;;65.50;51.08;;;17.20;56.00;;;;;;4950484;28;89969;-69
2021/12/24 14:05:52;;;;;;;63.78;51.13;;;17.20;56.10;;;;;;4950620;28;90825;-68
2021/12/24 14:08:21;;;;;;;65.80;51.65;;;17.20;56.10;;;;;;4958540;28;89357;-69
2021/12/24 14:10:49;;;;;;;66.38;50.67;;;17.20;56.20;;;;;;4967554;28;90112;-70
2021/12/24 14:13:28;;;;;;;64.78;51.53;;;17.10;56.20;;;;;;4963154;28;93282;-71
2021/12/24 14:24:15;;;;;;;66.45;51.00;;;17.10;56.50;;;;;;4961274;28;91059;-71
2021/12/24 14:26:51;;;;;;;65.45;50.80;;;17.00;56.50;;;;;;4955254;28;89565;-71
2021/12/24 14:29:44;;;;;;;64.93;50.85;;;17.00;56.50;;;;;;4941229;28;90555;-71
2021/12/24 14:32:13;;;;;;;64.07;50.30;;;17.00;56.80;;;;;;4944258;28;95800;-71
2021/12/24 14:34:43;;;;;;;65.05;51.05;;;16.90;56.70;;;;;;4936724;28;89974;-70
2021/12/24 14:37:16;;;;;;;64.82;50.90;;;16.90;56.70;;;;;;4946209;28;89963;-71